aviador You're here:

SBKP Decoded Metar

CAMPINAS in BRAZIL
Report Time2017-08-18 13:00:00
UTC Time2017-08-18 14:22:12
Flight Rules Old
Wind100° at 05 kt
W.Decomp.*RWY 15: 4.3 kt HW 2.5 kt LCW
W.Rank100° ranks 5
Current wind is below 100° avg. (6.1)
Visibility7000 m
Phenomena:N/A
Clouds:Broken 020 Hf
Expected CloudBase > 800 ft AGL from Temp-Dew spread
Ceiling2,000 ft
Temp17°C (ISA +6)
Dew Point15°C (88% RH)
AAT16.8°C
QNH1021 hPa
Density Alt2,877 ft
Elevation2,169 ft
Report Wrong Elevation
Raw Report
METAR SBKP 181300Z 10005KT 7000 BKN020 17/15 Q1021=

Extra information for SBKP:More info

Metar Taf Metar & Taf Last 4 Metars F.Rules Stats Wind Profile Meteogram Temp Stats Airport Information Weather charts Add Link Nearby VenuesMetar ALERT Operation Metar Decoded Social comments